Time;durP1;ratioP1;P1;durP2;ratioP2;P2;SDS_P1;SDS_P2;PMS_P1;PMS_P2;Temp;Humidity;BMP_temperature;BMP_pressure;BME280_temperature;BME280_humidity;BME280_pressure;Samples;Min_cycle;Max_cycle;Signal;HPM_P1;HPM_P2
2022/11/06 00:02:07;;;;;;;5.60;5.00;;;;;;;29.19;21.93;98424.25;6245519;23;20008;-80
2022/11/06 00:04:33;;;;;;;8.52;4.70;;;;;;;29.23;22.11;98422.06;6243294;23;20081;-81
2022/11/06 00:06:59;;;;;;;6.35;4.38;;;;;;;29.10;22.42;98424.13;6244117;23;20015;-80
2022/11/06 00:09:25;;;;;;;7.43;4.07;;;;;;;28.86;22.65;98428.66;6244189;23;20008;-80
2022/11/06 00:11:51;;;;;;;6.28;4.72;;;;;;;28.58;22.83;98427.63;6244696;23;20004;-80
2022/11/06 00:14:18;;;;;;;7.20;4.50;;;;;;;28.44;23.01;98427.31;6244773;22;20012;-81
2022/11/06 00:16:46;;;;;;;7.05;4.70;;;;;;;28.36;23.16;98440.88;6244320;22;20008;-81
2022/11/06 00:19:12;;;;;;;6.20;5.07;;;;;;;28.69;22.98;98435.72;6244586;22;20019;-80
2022/11/06 00:21:38;;;;;;;7.28;4.93;;;;;;;28.71;22.63;98430.41;6244851;23;20472;-80
2022/11/06 00:24:06;;;;;;;7.47;4.68;;;;;;;28.50;23.02;98439.59;6244509;23;20025;-80
2022/11/06 00:26:34;;;;;;;7.93;4.20;;;;;;;28.49;23.11;98436.00;6246023;22;20012;-80
2022/11/06 00:29:00;;;;;;;4.93;4.30;;;;;;;28.69;22.90;98435.72;6245037;22;20008;-80
2022/11/06 00:31:29;;;;;;;4.97;4.10;;;;;;;28.23;23.56;98439.31;6245299;22;20012;-80
2022/11/06 00:33:57;;;;;;;6.88;5.00;;;;;;;27.75;23.79;98440.44;6244249;22;20012;-80
2022/11/06 00:36:25;;;;;;;7.43;5.22;;;;;;;27.83;23.93;98438.97;6245119;22;20012;-80
2022/11/06 00:38:53;;;;;;;6.53;4.68;;;;;;;27.46;24.33;98443.34;6245299;22;20035;-80
2022/11/06 00:41:19;;;;;;;7.30;5.20;;;;;;;27.42;24.25;98444.69;6245022;22;20012;-80
2022/11/06 00:43:50;;;;;;;7.80;5.57;;;;;;;27.61;24.27;98438.81;6243079;22;20016;-80
2022/11/06 00:46:17;;;;;;;;;;;;;;;27.42;24.15;98444.69;6244829;22;20521;-80
2022/11/06 00:48:43;;;;;;;6.13;4.85;;;;;;;27.32;24.25;98446.53;6243225;23;20236;-80
2022/11/06 00:51:15;;;;;;;7.32;4.88;;;;;;;27.42;24.31;98448.28;6242822;22;20023;-80
2022/11/06 00:53:42;;;;;;;8.20;5.32;;;;;;;27.44;24.30;98451.44;6244075;22;20012;-80
2022/11/06 00:56:16;;;;;;;5.95;4.80;;;;;;;27.35;24.55;98454.13;6244499;22;20012;-80
2022/11/06 00:58:43;;;;;;;7.72;5.18;;;;;;;26.93;24.90;98444.84;6243673;22;20103;-81
2022/11/06 01:01:10;;;;;;;7.03;4.75;;;;;;;27.14;24.82;98449.84;6245137;22;20004;-82
2022/11/06 01:03:38;;;;;;;8.13;5.63;;;;;;;27.07;24.76;98455.69;6244157;23;20005;-82
2022/11/06 01:06:16;;;;;;;7.03;5.20;;;;;;;26.76;25.20;98450.94;6242961;22;20004;-82
2022/11/06 01:08:42;;;;;;;8.98;6.65;;;;;;;26.81;25.22;98454.03;6243629;22;20086;-82
2022/11/06 01:11:13;;;;;;;9.35;6.43;;;;;;;27.02;24.68;98455.47;6244410;22;20028;-82
2022/11/06 01:13:39;;;;;;;;;;;;;;;26.81;24.71;98454.03;6245603;23;20027;-82
2022/11/06 01:16:08;;;;;;;7.72;4.93;;;;;;;27.43;24.31;98455.50;6245014;22;20276;-82
2022/11/06 01:18:35;;;;;;;10.23;5.80;;;;;;;27.44;24.25;98450.66;6245143;22;20039;-82
2022/11/06 01:21:11;;;;;;;7.50;5.45;;;;;;;27.46;24.14;98463.06;6243626;23;20040;-82
2022/11/06 01:23:38;;;;;;;8.20;5.07;;;;;;;27.40;24.10;98457.19;6244779;23;20073;-82
2022/11/06 01:26:06;;;;;;;9.88;5.30;;;;;;;27.61;23.79;98452.94;6246939;22;20004;-82
2022/11/06 01:28:32;;;;;;;8.27;5.90;;;;;;;27.72;23.70;98459.06;6246555;22;20010;-82
2022/11/06 01:31:10;;;;;;;9.18;5.90;;;;;;;27.71;23.64;98457.47;6244968;23;20012;-82
2022/11/06 01:33:37;;;;;;;6.40;4.70;;;;;;;27.63;23.89;98458.94;6245043;22;20430;-82
2022/11/06 01:36:03;;;;;;;7.95;5.20;;;;;;;27.75;23.78;98452.50;6245890;22;20058;-82
2022/11/06 01:38:30;;;;;;;9.80;5.55;;;;;;;27.55;23.70;98449.09;6245666;22;20036;-83
2022/11/06 01:40:56;;;;;;;8.05;6.13;;;;;;;27.29;24.05;98451.03;6246327;22;20435;-82
2022/11/06 01:43:41;;;;;;;8.38;6.07;;;;;;;27.14;24.42;98449.09;6245826;23;20047;-82
2022/11/06 01:46:08;;;;;;;7.90;5.53;;;;;;;27.55;23.99;98451.91;6246335;23;20008;-82
2022/11/06 01:48:35;;;;;;;7.95;4.93;;;;;;;27.71;23.57;98451.81;6245723;23;20083;-82
2022/11/06 01:51:01;;;;;;;7.30;5.43;;;;;;;28.08;23.05;98448.25;6245373;22;20034;-82
2022/11/06 01:53:28;;;;;;;10.82;5.68;;;;;;;28.11;23.15;98449.38;6245259;23;20338;-82
2022/11/06 01:56:00;;;;;;;7.15;5.35;;;;;;;27.81;23.47;98442.25;6245998;22;20568;-82
2022/11/06 01:58:30;;;;;;;8.90;5.25;;;;;;;27.38;23.92;98441.94;6245624;22;20035;-82
2022/11/06 02:00:56;;;;;;;6.57;5.20;;;;;;;27.17;24.23;98448.19;6245031;22;20000;-82
2022/11/06 02:03:22;;;;;;;8.65;5.60;;;;;;;27.13;24.35;98453.13;6245058;23;20504;-82
2022/11/06 02:05:49;;;;;;;9.95;6.15;;;;;;;27.09;24.12;98453.25;6243941;23;20008;-82
2022/11/06 02:08:18;;;;;;;8.02;5.45;;;;;;;27.35;24.06;98454.88;6245921;22;20012;-82
2022/11/06 02:10:45;;;;;;;9.30;5.53;;;;;;;27.42;23.75;98464.41;6246513;22;20065;-82
2022/11/06 02:13:25;;;;;;;11.45;5.93;;;;;;;27.46;23.96;98460.25;6244563;23;20000;-82
2022/11/06 02:16:20;;;;;;;6.70;4.72;;;;;;;27.53;23.84;98462.06;6246369;22;20032;-83
2022/11/06 02:19:14;;;;;;;7.75;4.57;;;;;;;27.66;23.70;98463.66;6245432;22;20004;-81
2022/11/06 02:22:03;;;;;;;11.20;5.43;;;;;;;28.08;23.28;98472.09;6244617;23;20138;-82
2022/11/06 02:24:51;;;;;;;7.93;5.07;;;;;;;27.58;23.77;98467.16;6245719;22;20042;-82
2022/11/06 02:27:23;;;;;;;8.60;5.88;;;;;;;27.73;23.41;98463.44;6244162;23;20009;-82
2022/11/06 02:29:58;;;;;;;10.27;5.50;;;;;;;27.62;23.57;98471.47;6245615;22;20031;-82
2022/11/06 02:32:37;;;;;;;8.68;4.88;;;;;;;27.80;23.14;98474.53;6245931;23;20062;-81
2022/11/06 02:35:16;;;;;;;9.38;5.32;;;;;;;27.67;23.31;98470.09;6245357;23;20367;-82
2022/11/06 02:37:45;;;;;;;11.00;5.15;;;;;;;27.62;23.61;98468.63;6245778;22;20442;-82
2022/11/06 02:40:13;;;;;;;7.93;6.28;;;;;;;27.52;23.53;98472.56;6245892;22;20008;-82
2022/11/06 02:42:45;;;;;;;11.10;5.80;;;;;;;27.30;23.99;98471.59;6245882;22;20018;-82
2022/11/06 02:45:14;;;;;;;8.25;5.40;;;;;;;27.23;23.91;98480.25;6246077;22;20036;-82
2022/11/06 02:47:43;;;;;;;8.45;5.60;;;;;;;27.14;23.96;98482.91;6246212;22;20004;-82
2022/11/06 02:50:16;;;;;;;9.05;4.60;;;;;;;27.17;24.05;98473.53;6246630;22;20083;-82
2022/11/06 02:52:54;;;;;;;7.30;5.15;;;;;;;27.43;23.87;98478.06;6245832;22;20004;-82
2022/11/06 02:55:32;;;;;;;6.13;4.40;;;;;;;27.77;23.32;98471.81;6245483;22;20023;-82
2022/11/06 02:58:05;;;;;;;7.43;5.13;;;;;;;27.62;23.45;98471.47;6246480;22;20013;-82
2022/11/06 03:00:34;;;;;;;7.28;4.57;;;;;;;27.15;24.02;98479.66;6245010;22;20008;-82
2022/11/06 03:03:24;;;;;;;9.38;5.03;;;;;;;27.06;23.97;98478.69;6242954;22;20019;-82
2022/11/06 03:05:53;;;;;;;10.43;5.68;;;;;;;27.16;23.98;98484.06;6228205;22;20051;-82
2022/11/06 03:08:41;;;;;;;7.07;4.47;;;;;;;27.04;24.28;98473.53;6244670;23;20075;-82
2022/11/06 03:11:18;;;;;;;8.93;5.57;;;;;;;27.06;24.34;98476.69;6243534;22;20039;-82
2022/11/06 03:14:02;;;;;;;5.40;4.28;;;;;;;27.28;24.08;98474.81;6243344;23;20014;-82
2022/11/06 03:16:48;;;;;;;10.05;5.43;;;;;;;27.36;23.62;98472.59;6243845;22;20651;-82
2022/11/06 03:19:28;;;;;;;6.20;5.25;;;;;;;27.53;23.58;98470.53;6244766;22;20039;-82
2022/11/06 03:22:08;;;;;;;8.67;5.30;;;;;;;27.49;23.73;98469.84;6245674;22;20005;-82
2022/11/06 03:24:45;;;;;;;7.30;4.30;;;;;;;27.95;23.16;98464.38;6244813;23;20024;-82
2022/11/06 03:27:32;;;;;;;6.13;4.07;;;;;;;28.49;22.49;98469.09;6245598;22;20337;-82
2022/11/06 03:30:05;;;;;;;5.00;3.85;;;;;;;28.93;22.01;98462.34;6244203;22;20643;-82
2022/11/06 03:32:44;;;;;;;4.72;3.50;;;;;;;29.19;21.50;98469.50;6244208;22;20050;-82
2022/11/06 03:35:23;;;;;;;5.78;3.60;;;;;;;29.21;21.44;98469.03;6244999;23;20035;-82
2022/11/06 03:38:02;;;;;;;6.80;3.40;;;;;;;29.34;21.20;98470.53;6244716;22;20439;-82
2022/11/06 03:40:31;;;;;;;5.50;3.35;;;;;;;29.49;21.23;98470.81;6244716;22;20012;-82
2022/11/06 03:43:02;;;;;;;5.45;3.55;;;;;;;29.61;21.06;98474.81;6244140;22;20019;-82
2022/11/06 03:45:31;;;;;;;6.10;4.07;;;;;;;29.69;20.77;98479.72;6244413;22;20089;-82
2022/11/06 03:48:13;;;;;;;8.90;3.63;;;;;;;29.65;20.63;98478.28;6245889;22;20000;-82
2022/11/06 03:50:50;;;;;;;5.43;4.05;;;;;;;29.51;20.74;98487.31;6245265;22;20322;-82
2022/11/06 03:53:25;;;;;;;5.38;4.05;;;;;;;28.96;21.38;98494.56;6244443;23;20102;-82
2022/11/06 03:55:56;;;;;;;4.18;3.75;;;;;;;28.69;21.94;98487.41;6245143;22;20008;-82
2022/11/06 03:58:26;;;;;;;9.00;4.47;;;;;;;28.62;21.62;98496.13;6244637;22;20015;-82
2022/11/06 04:00:56;;;;;;;7.85;4.85;;;;;;;28.45;21.94;98502.34;6245672;22;20030;-82
2022/11/06 04:03:33;;;;;;;7.80;4.35;;;;;;;28.24;22.35;98494.56;6243249;22;20004;-83
2022/11/06 04:06:11;;;;;;;6.00;4.10;;;;;;;28.20;22.43;98497.47;6244472;22;20557;-82
2022/11/06 04:14:14;;;;;;;8.00;5.70;;;;;;;28.04;22.41;98503.25;6244913;23;20077;-82
2022/11/06 04:16:49;;;;;;;9.52;6.22;;;;;;;27.82;22.65;98500.25;6243466;22;20024;-82
2022/11/06 04:19:18;;;;;;;6.75;5.00;;;;;;;27.67;22.87;98496.28;6243174;22;20520;-82
2022/11/06 04:21:55;;;;;;;12.50;5.47;;;;;;;27.73;22.76;98500.13;6241793;23;20035;-82
2022/11/06 04:27:50;;;;;;;4.63;3.88;;;;;;;27.48;23.29;98508.53;6243334;23;20135;-82
2022/11/06 04:30:17;;;;;;;11.35;5.90;;;;;;;27.55;22.99;98508.34;6244024;22;20004;-82
2022/11/06 04:32:59;;;;;;;5.60;4.53;;;;;;;26.79;24.13;98504.41;6241643;22;20004;-82
2022/11/06 04:35:49;;;;;;;7.20;4.18;;;;;;;26.64;24.37;98511.59;6244501;22;20009;-82
2022/11/06 04:38:28;;;;;;;8.53;5.70;;;;;;;25.93;25.40;98512.47;6243584;23;20014;-82
2022/11/06 04:41:19;;;;;;;8.70;4.93;;;;;;;26.00;25.28;98515.91;6243577;23;20079;-82
2022/11/06 04:44:20;;;;;;;8.18;5.32;;;;;;;25.76;25.65;98522.09;6244360;22;20134;-82
2022/11/06 04:46:52;;;;;;;10.63;6.20;;;;;;;26.03;25.15;98517.88;6238670;23;20361;-82
2022/11/06 04:49:19;;;;;;;10.23;6.18;;;;;;;25.95;25.44;98518.47;6244126;22;20027;-82
2022/11/06 04:51:46;;;;;;;7.50;5.60;;;;;;;26.56;24.59;98516.59;6245312;22;20507;-82
2022/11/06 04:54:13;;;;;;;9.82;6.57;;;;;;;26.38;24.54;98521.09;6244169;22;20016;-82
2022/11/06 04:56:40;;;;;;;9.50;6.20;;;;;;;26.52;24.37;98518.72;6244904;22;20012;-82
2022/11/06 04:59:11;;;;;;;12.30;6.78;;;;;;;26.64;24.25;98520.84;6246365;22;20008;-82
2022/11/06 05:01:37;;;;;;;;;;;;;;;26.90;23.74;98521.00;6246646;22;20028;-82
2022/11/06 05:04:03;;;;;;;11.85;5.03;;;;;;;27.26;23.43;98525.25;6245218;23;19915;-82
2022/11/06 05:06:29;;;;;;;10.82;6.15;;;;;;;27.49;23.04;98520.63;6244494;23;20016;-81
2022/11/06 05:08:56;;;;;;;9.32;5.75;;;;;;;27.35;23.31;98528.19;6247350;23;20008;-82
2022/11/06 05:11:22;;;;;;;10.45;5.30;;;;;;;27.42;23.04;98532.91;6246552;22;20012;-82
2022/11/06 05:13:48;;;;;;;12.48;6.28;;;;;;;26.82;23.98;98533.69;6246327;23;20008;-82
2022/11/06 05:16:14;;;;;;;8.80;5.68;;;;;;;26.91;23.95;98536.69;6247367;23;20030;-82
2022/11/06 05:18:40;;;;;;;10.15;5.45;;;;;;;27.10;23.50;98532.94;6246639;23;20452;-82
2022/11/06 05:23:51;;;;;;;9.30;4.93;;;;;;;27.55;23.14;98527.28;6246174;23;20027;-82
2022/11/06 05:26:17;;;;;;;7.35;4.75;;;;;;;27.55;22.81;98530.91;6244488;23;20008;-82
2022/11/06 05:28:43;;;;;;;10.23;5.20;;;;;;;27.60;23.04;98533.19;6245609;23;20023;-82
2022/11/06 05:31:09;;;;;;;8.98;5.03;;;;;;;27.34;23.24;98528.66;6246025;23;20016;-82
2022/11/06 05:33:35;;;;;;;9.10;5.63;;;;;;;27.25;23.12;98528.50;6246109;23;20004;-82
2022/11/06 05:36:03;;;;;;;11.60;6.30;;;;;;;27.20;23.22;98534.69;6246975;23;20459;-82
2022/11/06 05:38:30;;;;;;;7.82;6.13;;;;;;;27.00;23.71;98531.22;6246439;22;20345;-82
2022/11/06 05:40:56;;;;;;;10.85;6.15;;;;;;;27.19;23.32;98538.75;6245708;22;20039;-81
2022/11/06 05:43:22;;;;;;;12.43;7.43;;;;;;;27.46;22.92;98544.88;6246180;23;20050;-82
2022/11/06 05:45:48;;;;;;;7.90;5.43;;;;;;;27.36;22.88;98546.72;6244294;23;20016;-82
2022/11/06 05:48:14;;;;;;;9.32;6.22;;;;;;;27.03;23.55;98547.22;6246842;23;20079;-82
2022/11/06 05:50:40;;;;;;;11.02;5.80;;;;;;;27.00;23.54;98550.94;6246727;23;20358;-82
2022/11/06 05:53:06;;;;;;;8.82;5.68;;;;;;;26.47;24.04;98552.25;6246366;23;20008;-82
2022/11/06 05:55:32;;;;;;;12.52;6.18;;;;;;;26.39;24.28;98548.81;6245480;23;20016;-82
2022/11/06 05:57:58;;;;;;;8.82;5.10;;;;;;;25.48;26.02;98548.00;6246573;23;20532;-82
2022/11/06 06:00:24;;;;;;;8.13;4.82;;;;;;;25.59;25.54;98554.19;6247055;23;20028;-82
2022/11/06 06:02:51;;;;;;;9.48;5.90;;;;;;;25.74;25.29;98550.66;6246229;23;20484;-82
2022/11/06 06:05:17;;;;;;;6.60;4.57;;;;;;;25.07;26.42;98559.59;6246773;23;20038;-82
2022/11/06 06:07:43;;;;;;;10.07;5.72;;;;;;;25.27;26.03;98558.44;6244908;23;20008;-82
2022/11/06 06:10:10;;;;;;;9.85;5.30;;;;;;;25.30;26.08;98556.75;6245737;23;20426;-82
2022/11/06 06:12:38;;;;;;;10.10;6.95;;;;;;;26.25;24.77;98568.06;6246581;22;20012;-83
2022/11/06 06:15:05;;;;;;;15.98;7.70;;;;;;;26.68;24.10;98569.41;6245075;22;20015;-84
2022/11/06 06:17:31;;;;;;;12.40;7.40;;;;;;;26.96;23.60;98570.75;6246419;22;20012;-84
2022/11/06 06:19:57;;;;;;;12.25;7.85;;;;;;;26.88;23.72;98569.38;6245622;22;20028;-84
2022/11/06 06:22:23;;;;;;;13.90;6.85;;;;;;;26.60;23.86;98575.69;6245500;23;20008;-84
2022/11/06 06:24:49;;;;;;;11.73;6.90;;;;;;;26.66;24.04;98571.91;6246304;23;20019;-83
2022/11/06 06:27:16;;;;;;;15.90;7.38;;;;;;;26.57;24.13;98582.97;6243692;23;20063;-83
2022/11/06 06:29:42;;;;;;;9.50;6.43;;;;;;;27.29;23.49;98591.22;6244835;23;20453;-82
2022/11/06 06:32:08;;;;;;;10.93;6.53;;;;;;;27.68;22.81;98578.91;6245375;23;20004;-83
2022/11/06 06:34:34;;;;;;;7.88;6.32;;;;;;;27.49;23.07;98589.13;6246986;23;20066;-83
2022/11/06 06:37:00;;;;;;;9.70;5.65;;;;;;;27.17;23.34;98584.28;6245837;23;20434;-83
2022/11/06 06:39:26;;;;;;;8.75;5.88;;;;;;;27.38;23.15;98580.13;6245755;23;20008;-83
2022/11/06 06:41:52;;;;;;;6.82;4.90;;;;;;;27.61;23.17;98587.59;6245843;23;20015;-83
2022/11/06 06:44:18;;;;;;;8.38;4.93;;;;;;;28.13;22.64;98593.72;6245830;23;20012;-83
2022/11/06 06:46:44;;;;;;;8.85;5.22;;;;;;;28.60;21.97;98594.69;6244770;23;20008;-82
2022/11/06 06:49:10;;;;;;;10.63;5.22;;;;;;;28.72;21.63;98595.91;6245292;23;20015;-81
2022/11/06 06:51:36;;;;;;;11.35;4.72;;;;;;;28.35;22.26;98594.66;6245885;23;20004;-82
2022/11/06 06:54:02;;;;;;;9.68;4.65;;;;;;;26.64;24.35;98605.34;6245377;23;20043;-81
2022/11/06 06:56:28;;;;;;;15.20;6.90;;;;;;;26.47;24.43;98605.75;6246548;22;20348;-81
2022/11/06 06:58:54;;;;;;;11.13;6.07;;;;;;;26.82;24.26;98602.13;6245696;23;20009;-80
2022/11/06 07:01:21;;;;;;;8.88;5.63;;;;;;;26.59;24.15;98591.78;6246365;23;20062;-80
2022/11/06 07:03:47;;;;;;;8.02;5.50;;;;;;;26.45;24.36;98594.13;6244690;23;20079;-80
2022/11/06 07:06:14;;;;;;;6.53;3.78;;;;;;;26.64;24.52;98590.47;6243393;23;20008;-81
2022/11/06 07:08:40;;;;;;;8.18;4.75;;;;;;;26.65;24.55;98586.44;6245491;22;20426;-81
2022/11/06 07:11:07;;;;;;;10.82;5.32;;;;;;;26.41;24.70;98591.41;6243682;23;20399;-82
2022/11/06 07:13:34;;;;;;;14.68;5.32;;;;;;;26.53;24.41;98593.53;6246000;22;20137;-82
2022/11/06 07:16:05;;;;;;;10.65;5.63;;;;;;;27.04;24.09;98593.91;6244121;22;20365;-82
2022/11/06 07:18:32;;;;;;;10.82;5.78;;;;;;;27.64;23.37;98597.94;6246229;22;20008;-83
2022/11/06 07:20:58;;;;;;;10.38;4.97;;;;;;;28.29;22.87;98592.81;6244809;22;20075;-83
2022/11/06 07:23:24;;;;;;;8.27;5.20;;;;;;;28.82;22.12;98594.00;6245449;22;20079;-82
2022/11/06 07:25:54;;;;;;;6.47;4.40;;;;;;;29.14;21.84;98594.50;6245533;23;20035;-83
2022/11/06 07:28:20;;;;;;;7.28;4.78;;;;;;;29.16;21.51;98591.19;6244397;23;20011;-81
2022/11/06 07:30:46;;;;;;;7.88;4.60;;;;;;;29.29;21.46;98586.34;6244898;23;20016;-83
2022/11/06 07:33:12;;;;;;;6.10;3.97;;;;;;;29.24;21.61;98576.38;6244444;23;20008;-83
2022/11/06 07:35:38;;;;;;;6.72;3.58;;;;;;;29.29;21.54;98581.44;6243811;23;20190;-84
2022/11/06 07:38:05;;;;;;;7.78;4.45;;;;;;;29.23;21.56;98577.63;6243370;23;20441;-83
2022/11/06 07:40:35;;;;;;;6.53;3.80;;;;;;;29.34;21.72;98580.06;6244263;22;20046;-82
2022/11/06 07:43:06;;;;;;;5.22;3.67;;;;;;;29.53;21.43;98576.16;6244570;22;20062;-83
2022/11/06 07:45:32;;;;;;;9.60;4.43;;;;;;;29.49;21.21;98580.38;6243873;22;20134;-83
2022/11/06 07:47:59;;;;;;;6.47;3.67;;;;;;;29.08;21.52;98584.22;6244630;22;20081;-84
2022/11/06 07:50:25;;;;;;;7.35;4.20;;;;;;;28.80;22.13;98583.13;6243507;22;20074;-83
2022/11/06 07:52:52;;;;;;;4.78;3.58;;;;;;;28.73;22.40;98586.19;6244507;22;20004;-83
2022/11/06 07:55:18;;;;;;;4.22;3.40;;;;;;;29.13;22.28;98577.97;6243502;22;20020;-83
2022/11/06 07:57:44;;;;;;;5.22;3.60;;;;;;;29.46;21.85;98572.78;6244105;23;20442;-82
2022/11/06 08:00:11;;;;;;;6.03;3.72;;;;;;;29.61;21.78;98574.66;6240816;23;20357;-83
2022/11/06 08:02:37;;;;;;;4.07;3.20;;;;;;;29.61;22.01;98562.53;6241101;22;20030;-83
2022/11/06 08:05:03;;;;;;;6.40;3.33;;;;;;;29.72;21.10;98568.59;6243052;23;20054;-83
2022/11/06 08:07:29;;;;;;;3.88;3.30;;;;;;;29.72;21.34;98568.59;6242174;23;20012;-83
2022/11/06 08:09:55;;;;;;;5.88;2.80;;;;;;;29.64;21.64;98570.88;6243223;23;20004;-83
2022/11/06 08:12:21;;;;;;;5.07;3.35;;;;;;;29.60;21.74;98575.09;6243617;23;20012;-83
2022/11/06 08:14:48;;;;;;;9.25;3.75;;;;;;;29.70;21.21;98574.72;6241198;23;20107;-83
2022/11/06 08:17:14;;;;;;;5.30;3.28;;;;;;;29.90;21.75;98566.69;6243507;23;20047;-83
2022/11/06 08:19:40;;;;;;;5.47;3.40;;;;;;;29.09;22.05;98571.66;6242892;23;20004;-84
2022/11/06 08:22:07;;;;;;;7.78;3.28;;;;;;;29.02;22.21;98574.72;6241442;23;20075;-83
2022/11/06 08:24:34;;;;;;;7.70;3.88;;;;;;;29.06;21.90;98567.69;6241383;22;20015;-84
2022/11/06 08:27:02;;;;;;;4.93;3.40;;;;;;;29.38;21.45;98569.44;6240635;23;20012;-83
2022/11/06 08:29:28;;;;;;;4.88;3.10;;;;;;;29.48;21.61;98573.91;6244763;22;20015;-83
2022/11/06 08:31:55;;;;;;;5.18;3.17;;;;;;;29.62;21.84;98567.72;6243202;23;20020;-84
2022/11/06 08:34:21;;;;;;;6.45;2.88;;;;;;;29.79;21.61;98569.16;6243419;23;20079;-84
2022/11/06 08:36:51;;;;;;;5.63;3.05;;;;;;;29.53;21.51;98576.16;6243527;23;20062;-84
2022/11/06 08:39:17;;;;;;;5.23;2.57;;;;;;;29.70;21.58;98568.25;6244468;22;20008;-84
2022/11/06 08:41:44;;;;;;;6.63;3.45;;;;;;;29.36;21.95;98569.88;6243849;23;20004;-84
2022/11/06 08:44:10;;;;;;;5.25;3.08;;;;;;;28.96;22.00;98576.56;6243270;22;20070;-84
2022/11/06 08:46:36;;;;;;;5.03;2.47;;;;;;;29.33;22.24;98564.38;6243069;23;20083;-83
2022/11/06 08:49:04;;;;;;;4.10;2.88;;;;;;;29.51;22.15;98558.84;6242712;23;20438;-84
2022/11/06 08:51:31;;;;;;;4.03;2.10;;;;;;;29.90;22.15;98566.69;6240595;23;20043;-83
2022/11/06 08:53:57;;;;;;;5.15;2.83;;;;;;;30.32;21.87;98569.13;6243749;23;20013;-84
2022/11/06 08:56:23;;;;;;;5.07;2.78;;;;;;;30.52;21.36;98566.75;6242628;23;20338;-84
2022/11/06 08:58:49;;;;;;;3.88;2.70;;;;;;;30.56;21.39;98564.53;6243531;23;20039;-84
2022/11/06 09:01:15;;;;;;;11.90;2.97;;;;;;;30.69;20.89;98565.22;6242526;23;20016;-84
2022/11/06 09:03:41;;;;;;;4.95;3.28;;;;;;;30.74;21.97;98567.44;6236038;23;20012;-84
2022/11/06 09:06:08;;;;;;;3.40;2.78;;;;;;;30.70;21.98;98566.78;6242574;23;20079;-84
2022/11/06 09:08:34;;;;;;;5.00;2.25;;;;;;;30.79;21.13;98563.97;6244780;23;20032;-84
2022/11/06 09:11:03;;;;;;;5.60;2.85;;;;;;;31.02;21.48;98562.63;6243626;23;20008;-84
2022/11/06 09:13:29;;;;;;;3.50;2.40;;;;;;;31.16;21.91;98567.69;6243081;22;20032;-83
2022/11/06 09:15:59;;;;;;;5.10;3.15;;;;;;;31.25;21.43;98559.22;6243898;23;20442;-86
2022/11/06 09:18:25;;;;;;;4.57;2.88;;;;;;;30.31;21.88;98559.84;6242007;23;20005;-84
2022/11/06 09:20:57;;;;;;;3.90;2.53;;;;;;;29.43;23.34;98568.84;6245140;23;20453;-84
2022/11/06 09:23:24;;;;;;;4.50;2.67;;;;;;;28.60;24.06;98568.44;6242276;22;20086;-84
2022/11/06 09:25:52;;;;;;;3.53;2.75;;;;;;;29.12;23.53;98559.44;6242993;23;20019;-83
2022/11/06 09:28:18;;;;;;;4.38;3.10;;;;;;;29.21;23.88;98563.16;6243990;22;20058;-84
2022/11/06 09:30:44;;;;;;;4.68;3.30;;;;;;;29.62;23.48;98562.06;6245176;23;20079;-84
2022/11/06 09:33:11;;;;;;;5.38;3.05;;;;;;;30.30;22.90;98561.09;6243837;23;20075;-83
2022/11/06 09:35:37;;;;;;;5.82;3.22;;;;;;;30.09;23.19;98556.28;6243218;23;20449;-83
2022/11/06 09:38:16;;;;;;;5.75;4.20;;;;;;;28.71;23.69;98566.06;6245638;23;20083;-83
2022/11/06 09:40:57;;;;;;;4.97;3.00;;;;;;;28.65;23.56;98565.84;6243915;22;20000;-84
2022/11/06 09:43:29;;;;;;;4.32;2.60;;;;;;;28.10;24.65;98568.41;6244183;22;20027;-84
2022/11/06 09:46:00;;;;;;;3.22;2.05;;;;;;;28.80;23.85;98573.88;6244251;23;20035;-84
2022/11/06 09:48:44;;;;;;;3.40;1.90;;;;;;;29.17;23.51;98564.50;6246619;22;20008;-84
2022/11/06 09:51:16;;;;;;;;;;;;;;;29.74;23.24;98557.59;6246271;22;20083;-84
2022/11/06 09:53:57;;;;;;;3.77;2.70;;;;;;;28.48;24.60;98560.75;6246537;22;20361;-84
2022/11/06 09:56:32;;;;;;;;;;;;;;;27.55;23.68;98561.13;6246051;22;20053;-84
2022/11/06 09:59:02;;;;;;;4.10;2.40;;;;;;;27.50;25.56;98562.47;6246803;22;19914;-84
2022/11/06 10:01:44;;;;;;;3.45;2.17;;;;;;;27.31;25.99;98563.38;6244575;22;20121;-85
2022/11/06 10:04:44;;;;;;;3.70;1.90;;;;;;;28.24;24.94;98562.34;6245788;22;20019;-84
2022/11/06 10:07:41;;;;;;;2.70;2.10;;;;;;;29.48;22.94;98559.00;6246267;22;20042;-83
2022/11/06 10:10:16;;;;;;;2.60;1.80;;;;;;;29.87;22.15;98556.28;6221571;22;20012;-83
2022/11/06 10:12:54;;;;;;;;;;;;;;;29.84;21.96;98551.56;6245974;22;19918;-83
2022/11/06 10:15:20;;;;;;;;;;;;;;;30.12;22.18;98552.53;6243064;23;20043;-83
2022/11/06 10:18:24;;;;;;;2.40;1.90;;;;;;;29.41;23.01;98552.31;6246523;23;19914;-82
2022/11/06 10:20:52;;;;;;;;;;;;;;;28.96;23.24;98546.25;6180197;23;20066;-83
2022/11/06 10:23:37;;;;;;;;;;;;;;;25.63;28.72;98536.03;6242038;22;19912;-84
2022/11/06 10:26:03;;;;;;;;;;;;;;;25.60;27.23;98538.94;6245964;22;19911;-83
2022/11/06 10:28:29;;;;;;;;;;;;;;;26.03;27.77;98539.56;6246716;23;20381;-83
2022/11/06 10:31:07;;;;;;;;;;;;;;;26.14;26.87;98536.56;6246353;23;20256;-83
2022/11/06 10:33:34;;;;;;;;;;;;;;;25.89;27.48;98523.00;6246742;23;19903;-83
2022/11/06 10:36:06;;;;;;;;;;;;;;;25.97;27.78;98525.25;6246282;22;20337;-82
2022/11/06 10:38:34;;;;;;;;;;;;;;;24.92;28.92;98514.13;6245717;22;19912;-83
2022/11/06 10:41:00;;;;;;;;;;;;;;;23.42;32.71;98523.59;6245517;22;19973;-82
2022/11/06 10:43:32;;;;;;;;;;;;;;;22.66;33.68;98517.16;6246153;22;19915;-83
2022/11/06 10:46:07;;;;;;;;;;;;;;;21.95;35.26;98521.72;6244279;23;19911;-83
2022/11/06 10:48:38;;;;;;;;;;;;;;;21.06;37.10;98521.28;6244935;23;19943;-83
2022/11/06 10:51:12;;;;;;;;;;;;;;;20.96;35.24;98507.31;6244970;22;20006;-82
2022/11/06 10:53:46;;;;;;;;;;;;;;;21.48;36.68;98508.34;6244721;23;20238;-82
2022/11/06 10:56:30;;;;;;;;;;;;;;;22.31;34.68;98502.69;6245473;22;19934;-82
2022/11/06 10:58:56;;;;;;;;;;;;;;;21.70;36.02;98513.44;6245069;23;19923;-83
2022/11/06 11:01:22;;;;;;;;;;;;;;;22.12;35.55;98501.22;6241683;23;19994;-83
2022/11/06 11:03:50;;;;;;;;;;;;;;;21.55;36.00;98508.31;6244843;22;20349;-83
2022/11/06 11:06:16;;;;;;;;;;;;;;;20.70;37.62;98499.41;6245346;22;19997;-83
2022/11/06 11:08:43;;;;;;;;;;;;;;;21.28;37.11;98502.47;6245640;22;19912;-83
2022/11/06 11:11:12;;;;;;;;;;;;;;;21.93;35.57;98496.97;6246100;22;19969;-84
2022/11/06 11:13:42;;;;;;;;;;;;;;;21.77;35.82;98498.63;6245073;23;19938;-83
2022/11/06 11:16:22;;;;;;;;;;;;;;;21.05;36.65;98499.38;6241684;23;19911;-85
2022/11/06 11:18:49;;;;;;;;;;;;;;;21.09;36.24;98494.56;6245063;22;20296;-83
2022/11/06 11:21:18;;;;;;;;;;;;;;;23.25;31.67;98494.53;6245373;22;19957;-83
2022/11/06 11:23:59;;;;;;;;;;;;;;;23.10;32.36;98493.13;6244821;22;19923;-83
2022/11/06 11:26:26;;;;;;;;;;;;;;;22.96;32.99;98482.09;6246040;23;19958;-83
2022/11/06 11:28:54;;;;;;;;;;;;;;;22.36;33.58;98475.03;6242547;23;20363;-83
2022/11/06 11:31:26;;;;;;;;;;;;;;;22.23;34.35;98473.97;6245102;22;20265;-82
2022/11/06 11:33:54;;;;;;;;;;;;;;;22.39;33.35;98471.44;6243834;22;19919;-82
2022/11/06 11:36:20;;;;;;;;;;;;;;;23.08;32.98;98467.56;6244711;22;20284;-82
2022/11/06 11:38:46;;;;;;;;;;;;;;;22.37;33.08;98473.84;6245685;23;19912;-82
2022/11/06 11:41:13;;;;;;;;;;;;;;;23.08;32.35;98468.31;6244897;22;19912;-82
2022/11/06 11:43:40;;;;;;;;;;;;;;;23.23;32.47;98464.16;6244661;22;19931;-82
2022/11/06 11:46:06;;;;;;;;;;;;;;;25.65;28.21;98460.44;6246764;22;19918;-82
2022/11/06 11:48:43;;;;;;;;;;;;;;;23.94;30.90;98463.97;6246014;23;19908;-82
2022/11/06 11:51:12;;;;;;;;;;;;;;;22.28;33.46;98473.53;6247005;22;20010;-83
2022/11/06 11:53:38;;;;;;;;;;;;;;;22.12;34.85;98469.66;6243876;23;19916;-83
2022/11/06 11:56:06;;;;;;;;;;;;;;;21.58;35.41;98469.19;6245798;22;19947;-83
2022/11/06 11:58:32;;;;;;;;;;;;;;;22.21;34.52;98464.38;6245028;22;19912;-83
2022/11/06 12:01:02;;;;;;;;;;;;;;;21.90;35.03;98466.22;6245973;23;19908;-83
2022/11/06 12:03:32;;;;;;;;;;;;;;;23.32;32.35;98455.22;6245719;22;19962;-83
2022/11/06 12:06:09;;;;;;;;;;;;;;;22.14;34.17;98453.25;6244869;22;19907;-83
2022/11/06 12:08:37;;;;;;;;;;;;;;;20.94;36.20;98457.47;6244800;22;20010;-84
2022/11/06 12:11:03;;;;;;;;;;;;;;;22.33;34.14;98452.69;6245831;22;19916;-83